createdAt,value
2017-08-31T00:01:01.495Z,21.70
2017-08-31T00:03:29.630Z,21.80
2017-08-31T00:05:57.800Z,21.80
2017-08-31T00:08:25.945Z,21.80
2017-08-31T00:10:54.116Z,21.90
2017-08-31T00:13:22.238Z,22.00
2017-08-31T00:15:50.399Z,22.00
2017-08-31T00:18:18.535Z,22.10
2017-08-31T00:20:46.706Z,22.10
2017-08-31T00:23:14.843Z,22.10
2017-08-31T00:25:43.007Z,22.20
2017-08-31T00:28:11.162Z,22.20
2017-08-31T00:30:39.300Z,22.20
2017-08-31T00:33:07.471Z,22.20
2017-08-31T00:35:35.645Z,22.20
2017-08-31T00:38:03.781Z,22.20
2017-08-31T00:40:31.925Z,22.30
2017-08-31T00:43:00.092Z,22.30
2017-08-31T00:45:28.237Z,22.30
2017-08-31T00:47:56.434Z,22.30
2017-08-31T00:50:24.585Z,22.30
2017-08-31T00:52:52.720Z,22.20
2017-08-31T00:55:20.895Z,22.20
2017-08-31T00:57:49.037Z,22.20
2017-08-31T01:00:17.169Z,22.20
2017-08-31T01:02:45.343Z,22.10
2017-08-31T01:05:13.518Z,22.10
2017-08-31T01:07:41.659Z,22.00
2017-08-31T01:10:09.811Z,22.00
2017-08-31T01:12:38.588Z,22.00
2017-08-31T01:15:06.726Z,21.90
2017-08-31T01:17:34.869Z,21.90
2017-08-31T01:20:03.038Z,21.90
2017-08-31T01:22:31.162Z,21.90
2017-08-31T01:24:59.312Z,21.90
2017-08-31T01:27:27.475Z,21.90
2017-08-31T01:29:55.619Z,21.90
2017-08-31T01:32:23.782Z,21.90
2017-08-31T01:34:51.939Z,21.80
2017-08-31T01:37:20.102Z,21.80
2017-08-31T01:39:48.258Z,21.80
2017-08-31T01:42:16.409Z,21.80
2017-08-31T01:44:44.546Z,21.90
2017-08-31T01:47:12.694Z,21.90
2017-08-31T01:49:40.855Z,21.90
2017-08-31T01:52:08.997Z,21.90
2017-08-31T01:54:37.155Z,21.80
2017-08-31T01:57:05.294Z,21.80
2017-08-31T01:59:33.421Z,21.80
2017-08-31T02:02:01.576Z,21.80
2017-08-31T02:04:29.700Z,21.80
2017-08-31T02:06:57.866Z,21.80
2017-08-31T02:09:26.002Z,21.80
2017-08-31T02:11:54.279Z,21.70
2017-08-31T02:14:22.414Z,21.70
2017-08-31T02:16:50.574Z,21.70
2017-08-31T02:19:18.725Z,21.70
2017-08-31T02:21:46.865Z,21.70
2017-08-31T02:24:15.058Z,21.70
2017-08-31T02:26:43.200Z,21.60
2017-08-31T02:29:11.342Z,21.60
2017-08-31T02:31:39.489Z,21.60
2017-08-31T02:34:07.650Z,21.60
2017-08-31T02:36:35.790Z,21.50
2017-08-31T02:39:03.951Z,21.50
2017-08-31T02:41:32.112Z,21.50
2017-08-31T02:44:00.239Z,21.50
2017-08-31T02:46:28.399Z,21.50
2017-08-31T02:48:56.562Z,21.50
2017-08-31T02:51:24.703Z,21.40
2017-08-31T02:53:52.871Z,21.40
2017-08-31T02:56:21.007Z,21.40
2017-08-31T02:58:49.141Z,21.40
2017-08-31T03:01:17.288Z,21.40
2017-08-31T03:03:45.423Z,21.40
2017-08-31T03:06:13.548Z,21.40
2017-08-31T03:08:41.705Z,21.40
2017-08-31T03:11:09.836Z,21.40
2017-08-31T03:13:37.970Z,21.40
2017-08-31T03:16:06.134Z,21.40
2017-08-31T03:18:34.269Z,21.40
2017-08-31T03:21:02.396Z,21.40
2017-08-31T03:23:30.570Z,21.30
2017-08-31T03:25:58.701Z,21.30
2017-08-31T03:28:26.861Z,21.30
2017-08-31T03:30:55.023Z,21.30
2017-08-31T03:33:23.148Z,21.20
2017-08-31T03:35:51.274Z,21.20
2017-08-31T03:38:19.575Z,21.10
2017-08-31T03:40:47.709Z,21.10
2017-08-31T03:43:15.849Z,21.10
2017-08-31T03:45:44.003Z,21.00
2017-08-31T03:48:12.135Z,21.00
2017-08-31T03:50:40.315Z,21.00
2017-08-31T03:53:08.462Z,20.90
2017-08-31T03:55:36.587Z,20.90
2017-08-31T03:58:04.838Z,20.80
2017-08-31T04:00:32.974Z,20.80
2017-08-31T04:03:01.106Z,20.70
2017-08-31T04:05:29.267Z,20.60
2017-08-31T04:07:57.402Z,20.60
2017-08-31T04:10:25.563Z,20.50
2017-08-31T04:12:53.697Z,20.50
2017-08-31T04:15:21.854Z,20.40
2017-08-31T04:17:50.003Z,20.40
2017-08-31T04:20:18.185Z,20.40
2017-08-31T04:22:46.342Z,20.40
2017-08-31T04:25:14.472Z,20.30
2017-08-31T04:27:42.635Z,20.30
2017-08-31T04:30:10.771Z,20.30
2017-08-31T04:32:38.917Z,20.20
2017-08-31T04:35:07.076Z,20.20
2017-08-31T04:37:35.223Z,20.20
2017-08-31T04:40:03.383Z,20.30
2017-08-31T04:42:31.519Z,20.30
2017-08-31T04:44:59.685Z,20.30
2017-08-31T04:47:27.830Z,20.30
2017-08-31T04:49:55.953Z,20.30
2017-08-31T04:52:24.231Z,20.30
2017-08-31T04:54:52.357Z,20.30
2017-08-31T04:57:20.492Z,20.20
2017-08-31T04:59:48.668Z,20.20
2017-08-31T05:02:16.806Z,20.20
2017-08-31T05:04:44.975Z,20.30
2017-08-31T05:07:13.119Z,20.20
2017-08-31T05:09:41.262Z,20.30
2017-08-31T05:12:09.427Z,20.30
2017-08-31T05:14:37.544Z,20.30
2017-08-31T05:17:05.805Z,20.30
2017-08-31T05:19:33.939Z,20.30
2017-08-31T05:22:02.082Z,20.30
2017-08-31T05:24:30.245Z,20.40
2017-08-31T05:26:58.383Z,20.40
2017-08-31T05:29:26.566Z,20.40
2017-08-31T05:31:54.695Z,20.50
2017-08-31T05:34:23.008Z,20.50
2017-08-31T05:36:51.133Z,20.60
2017-08-31T05:39:19.270Z,20.70
2017-08-31T05:41:47.437Z,20.80
2017-08-31T05:44:15.584Z,20.90
2017-08-31T05:46:43.723Z,21.00
2017-08-31T05:49:11.879Z,21.10
2017-08-31T05:51:40.023Z,21.20
2017-08-31T05:54:08.194Z,21.30
2017-08-31T05:56:36.335Z,21.50
2017-08-31T05:59:04.506Z,21.60
2017-08-31T06:01:32.660Z,21.70
2017-08-31T06:04:00.813Z,21.90
2017-08-31T06:06:28.973Z,22.00
2017-08-31T06:08:57.109Z,22.20
2017-08-31T06:11:25.269Z,22.30
2017-08-31T06:13:53.416Z,22.50
2017-08-31T06:16:21.600Z,22.60
2017-08-31T06:18:49.771Z,22.80
2017-08-31T06:21:17.905Z,23.00
2017-08-31T06:23:46.061Z,23.20
2017-08-31T06:26:14.200Z,23.40
2017-08-31T06:28:42.333Z,23.60
2017-08-31T06:31:10.495Z,23.80
2017-08-31T06:33:38.619Z,23.90
2017-08-31T06:36:06.783Z,24.10
2017-08-31T06:38:34.916Z,24.20
2017-08-31T06:41:03.079Z,24.30
2017-08-31T06:43:31.223Z,24.50
2017-08-31T06:45:59.352Z,24.60
2017-08-31T06:48:27.515Z,24.70
2017-08-31T06:50:55.644Z,24.90
2017-08-31T06:53:23.775Z,25.00
2017-08-31T06:55:52.051Z,25.10
2017-08-31T06:58:20.174Z,25.30
2017-08-31T07:00:48.305Z,25.40
2017-08-31T07:03:16.483Z,25.60
2017-08-31T07:05:44.609Z,25.80
2017-08-31T07:08:12.743Z,25.90
2017-08-31T07:10:40.902Z,26.10
2017-08-31T07:13:09.040Z,26.20
2017-08-31T07:15:37.207Z,26.30
2017-08-31T07:18:05.346Z,26.50
2017-08-31T07:20:33.524Z,26.60
2017-08-31T07:23:01.683Z,26.70
2017-08-31T07:25:29.818Z,27.00
2017-08-31T07:27:58.013Z,27.10
2017-08-31T07:30:26.149Z,27.20
2017-08-31T07:32:54.320Z,27.30
2017-08-31T07:35:22.456Z,27.30
2017-08-31T07:37:50.585Z,27.30
2017-08-31T07:40:18.762Z,27.20
2017-08-31T07:42:46.924Z,27.30
2017-08-31T07:45:15.066Z,27.40
2017-08-31T07:47:43.225Z,27.50
2017-08-31T07:50:11.353Z,27.60
2017-08-31T07:52:39.527Z,27.80
2017-08-31T07:55:07.657Z,27.90
2017-08-31T07:57:35.812Z,28.00
2017-08-31T08:00:03.981Z,28.10
2017-08-31T08:02:32.131Z,28.20
2017-08-31T08:05:00.294Z,28.30
2017-08-31T08:07:28.468Z,28.40
2017-08-31T08:09:56.638Z,28.60
2017-08-31T08:12:24.820Z,28.80
2017-08-31T08:14:53.003Z,28.80
2017-08-31T08:17:21.185Z,29.00
2017-08-31T08:19:49.332Z,29.10
2017-08-31T08:22:17.459Z,29.20
2017-08-31T08:24:45.635Z,29.40
2017-08-31T08:27:13.771Z,29.40
2017-08-31T08:29:41.948Z,29.30
2017-08-31T08:32:10.109Z,29.10
2017-08-31T08:34:38.256Z,28.90
2017-08-31T08:37:06.431Z,28.70
2017-08-31T08:39:34.569Z,28.50
2017-08-31T08:42:02.716Z,28.40
2017-08-31T08:44:30.866Z,28.30
2017-08-31T08:46:59.136Z,28.10
2017-08-31T08:49:27.292Z,28.00
2017-08-31T08:51:56.553Z,27.80
2017-08-31T08:54:24.743Z,27.70
2017-08-31T08:56:52.879Z,27.60
2017-08-31T08:59:21.074Z,27.50
2017-08-31T09:01:49.214Z,27.40
2017-08-31T09:04:17.355Z,27.40
2017-08-31T09:06:45.503Z,27.40
2017-08-31T09:09:13.636Z,27.60
2017-08-31T09:11:41.811Z,27.70
2017-08-31T09:14:09.950Z,27.70
2017-08-31T09:16:38.126Z,27.70
2017-08-31T09:19:06.282Z,27.60
2017-08-31T09:21:34.409Z,27.50
2017-08-31T09:24:02.564Z,27.50
2017-08-31T09:26:30.712Z,27.40
2017-08-31T09:28:58.865Z,27.40
2017-08-31T09:31:27.017Z,27.40
2017-08-31T09:33:55.179Z,27.30
2017-08-31T09:36:23.332Z,27.30
2017-08-31T09:38:51.475Z,27.20
2017-08-31T09:41:19.621Z,27.00
2017-08-31T09:43:47.749Z,26.90
2017-08-31T09:46:15.897Z,26.60
2017-08-31T09:48:44.035Z,26.40
2017-08-31T09:51:12.204Z,26.20
2017-08-31T09:53:40.347Z,26.10
2017-08-31T09:56:08.491Z,25.90
2017-08-31T09:58:36.652Z,25.90
2017-08-31T10:01:04.781Z,25.90
2017-08-31T10:03:32.921Z,25.90
2017-08-31T10:06:01.100Z,25.90
2017-08-31T10:08:29.521Z,26.00
2017-08-31T10:10:57.663Z,25.90
2017-08-31T10:13:25.926Z,25.90
2017-08-31T10:15:54.091Z,25.80
2017-08-31T10:18:22.221Z,25.70
2017-08-31T10:20:50.381Z,25.50
2017-08-31T10:23:18.515Z,25.40
2017-08-31T10:25:46.641Z,25.20
2017-08-31T10:28:14.819Z,25.00
2017-08-31T10:30:42.954Z,24.90
2017-08-31T10:33:11.119Z,24.70
2017-08-31T10:35:39.249Z,24.60
2017-08-31T10:38:07.399Z,24.50
2017-08-31T10:40:35.524Z,24.50
2017-08-31T10:43:03.681Z,24.40
2017-08-31T10:45:31.813Z,24.40
2017-08-31T10:48:00.596Z,24.30
2017-08-31T10:50:28.761Z,24.30
2017-08-31T10:52:56.917Z,24.30
2017-08-31T10:55:25.065Z,24.20
2017-08-31T10:57:53.203Z,24.20
2017-08-31T11:00:21.331Z,24.10
2017-08-31T11:02:49.515Z,24.10
2017-08-31T11:05:17.644Z,24.00
2017-08-31T11:07:45.811Z,24.00
2017-08-31T11:10:13.946Z,23.90
2017-08-31T11:12:42.120Z,23.90
2017-08-31T11:15:10.259Z,23.90
2017-08-31T11:17:38.411Z,23.90
2017-08-31T11:20:06.558Z,23.90
2017-08-31T11:22:34.725Z,23.90
2017-08-31T11:25:02.861Z,23.80
2017-08-31T11:27:31.090Z,23.70
2017-08-31T11:29:59.253Z,23.70
2017-08-31T11:32:27.415Z,23.60
2017-08-31T11:34:55.522Z,23.50
2017-08-31T11:37:23.688Z,23.40
2017-08-31T11:39:51.846Z,23.20
2017-08-31T11:42:19.969Z,23.10
2017-08-31T11:44:48.095Z,22.90
2017-08-31T11:47:16.259Z,22.70
2017-08-31T11:49:44.398Z,22.60
2017-08-31T11:52:13.303Z,22.30
2017-08-31T11:54:41.496Z,22.30
2017-08-31T11:57:09.635Z,22.20
2017-08-31T11:59:37.779Z,22.00
2017-08-31T12:02:05.929Z,21.90
2017-08-31T12:04:43.995Z,21.80
2017-08-31T12:07:12.159Z,21.70
2017-08-31T12:09:40.352Z,21.60
2017-08-31T12:12:08.511Z,21.60
2017-08-31T12:14:36.671Z,21.50
2017-08-31T12:17:04.801Z,21.50
2017-08-31T12:19:32.967Z,21.50
2017-08-31T12:22:01.094Z,21.60
2017-08-31T12:24:29.287Z,21.60
2017-08-31T12:26:57.440Z,21.60
2017-08-31T12:29:25.569Z,21.60
2017-08-31T12:31:53.730Z,21.60
2017-08-31T12:34:21.866Z,21.50
2017-08-31T12:36:50.002Z,21.50
2017-08-31T12:39:18.164Z,21.40
2017-08-31T12:41:46.306Z,21.40
2017-08-31T12:44:14.449Z,21.40
2017-08-31T12:46:42.577Z,21.40
2017-08-31T12:49:10.715Z,21.40
2017-08-31T12:51:38.881Z,21.40
2017-08-31T12:54:07.006Z,21.40
2017-08-31T12:56:35.141Z,21.40
2017-08-31T12:59:03.295Z,21.40
2017-08-31T13:01:31.434Z,21.40
2017-08-31T13:03:59.603Z,21.40
2017-08-31T13:06:27.729Z,21.40
2017-08-31T13:08:55.878Z,21.30
2017-08-31T13:11:24.025Z,21.30
2017-08-31T13:13:52.168Z,21.30
2017-08-31T13:16:20.414Z,21.20
2017-08-31T13:18:48.542Z,21.20
2017-08-31T13:21:16.669Z,21.20
2017-08-31T13:23:44.823Z,21.10
2017-08-31T13:26:12.983Z,21.10
2017-08-31T13:28:41.127Z,21.10
2017-08-31T13:31:09.245Z,21.10
2017-08-31T13:33:37.406Z,21.00
2017-08-31T13:36:05.549Z,21.00
2017-08-31T13:38:33.726Z,21.00
2017-08-31T13:41:01.857Z,21.00
2017-08-31T13:43:29.978Z,20.90
2017-08-31T13:45:58.131Z,20.90
2017-08-31T13:48:26.261Z,20.80
2017-08-31T13:50:54.410Z,20.80
2017-08-31T13:53:22.547Z,20.70
2017-08-31T13:55:50.701Z,20.60
2017-08-31T13:58:18.823Z,20.60
2017-08-31T14:00:46.966Z,20.50
2017-08-31T14:03:15.124Z,20.50
2017-08-31T14:05:43.264Z,20.40
2017-08-31T14:08:11.421Z,20.40
2017-08-31T14:10:39.554Z,20.30
2017-08-31T14:13:07.703Z,20.30
2017-08-31T14:15:35.851Z,20.20
2017-08-31T14:18:03.990Z,20.20
2017-08-31T14:20:32.178Z,20.10
2017-08-31T14:23:00.323Z,20.20
2017-08-31T14:25:28.445Z,20.20
2017-08-31T14:27:56.603Z,20.20
2017-08-31T14:30:24.766Z,20.20
2017-08-31T14:32:52.889Z,20.10
2017-08-31T14:35:21.037Z,20.10
2017-08-31T14:37:49.167Z,20.20
2017-08-31T14:40:17.326Z,20.10
2017-08-31T14:42:45.473Z,20.20
2017-08-31T14:45:13.594Z,20.20
2017-08-31T14:47:41.750Z,20.10
2017-08-31T14:50:09.879Z,20.10
2017-08-31T14:52:39.674Z,20.10
2017-08-31T14:55:07.833Z,20.00
2017-08-31T14:57:36.005Z,20.00
2017-08-31T15:00:04.182Z,20.00
2017-08-31T15:02:32.311Z,20.00
2017-08-31T15:05:00.459Z,19.90
2017-08-31T15:07:28.617Z,19.90
2017-08-31T15:09:56.742Z,19.90
2017-08-31T15:12:24.904Z,19.80
2017-08-31T15:14:53.043Z,19.80
2017-08-31T15:17:21.219Z,19.70
2017-08-31T15:19:49.368Z,19.60
2017-08-31T15:22:17.507Z,19.40
2017-08-31T15:24:45.669Z,19.30
2017-08-31T15:27:13.923Z,19.10
2017-08-31T15:29:42.049Z,18.90
2017-08-31T15:32:10.213Z,18.80
2017-08-31T15:34:38.412Z,18.70
2017-08-31T15:37:06.556Z,18.60
2017-08-31T15:39:34.686Z,18.50
2017-08-31T15:42:02.957Z,18.40
2017-08-31T15:44:31.086Z,18.30
2017-08-31T15:46:59.231Z,18.20
2017-08-31T15:49:27.425Z,18.10
2017-08-31T15:51:55.554Z,18.00
2017-08-31T15:54:23.686Z,17.90
2017-08-31T15:56:51.851Z,17.90
2017-08-31T15:59:19.995Z,17.80
2017-08-31T16:01:48.143Z,17.70
2017-08-31T16:04:16.292Z,17.60
2017-08-31T16:06:44.427Z,17.60
2017-08-31T16:09:12.591Z,17.60
2017-08-31T16:11:40.722Z,17.60
2017-08-31T16:14:08.855Z,17.50
2017-08-31T16:16:37.011Z,17.50
2017-08-31T16:19:05.142Z,17.50
2017-08-31T16:21:33.315Z,17.50
2017-08-31T16:24:01.444Z,17.40
2017-08-31T16:26:29.631Z,17.40
2017-08-31T16:28:57.798Z,17.40
2017-08-31T16:31:25.940Z,17.40
2017-08-31T16:33:54.069Z,17.30
2017-08-31T16:36:22.221Z,17.40
2017-08-31T16:38:50.355Z,17.30
2017-08-31T16:41:18.500Z,17.20
2017-08-31T16:43:46.639Z,17.20
2017-08-31T16:46:14.780Z,17.20
2017-08-31T16:48:43.038Z,17.20
2017-08-31T16:51:11.171Z,17.20
2017-08-31T16:53:39.307Z,17.20
2017-08-31T16:56:07.470Z,17.20
2017-08-31T16:58:35.602Z,17.20
2017-08-31T17:01:03.764Z,17.10
2017-08-31T17:03:31.903Z,17.10
2017-08-31T17:06:00.030Z,17.10
2017-08-31T17:08:28.192Z,17.10
2017-08-31T17:10:56.336Z,17.10
2017-08-31T17:13:24.499Z,17.10
2017-08-31T17:15:52.628Z,17.00
2017-08-31T17:18:20.795Z,17.00
2017-08-31T17:20:48.935Z,17.00
2017-08-31T17:23:17.081Z,17.00
2017-08-31T17:25:45.244Z,17.00
2017-08-31T17:28:13.386Z,17.00
2017-08-31T17:30:41.591Z,17.00
2017-08-31T17:33:09.850Z,17.00
2017-08-31T17:35:37.994Z,17.00
2017-08-31T17:38:06.143Z,17.00
2017-08-31T17:40:34.306Z,17.10
2017-08-31T17:43:02.446Z,17.10
2017-08-31T17:45:30.584Z,17.10
2017-08-31T17:47:58.759Z,17.10
2017-08-31T17:50:26.977Z,17.10
2017-08-31T17:52:55.134Z,17.10
2017-08-31T17:55:23.266Z,17.10
2017-08-31T17:57:51.435Z,17.10
2017-08-31T18:00:19.572Z,17.20
2017-08-31T18:02:47.743Z,17.20
2017-08-31T18:05:15.915Z,17.20
2017-08-31T18:07:44.059Z,17.20
2017-08-31T18:10:12.229Z,17.20
2017-08-31T18:12:40.362Z,17.20
2017-08-31T18:15:08.483Z,17.20
2017-08-31T18:17:36.648Z,17.20
2017-08-31T18:20:04.909Z,17.20
2017-08-31T18:22:33.127Z,17.20
2017-08-31T18:25:01.390Z,17.20
2017-08-31T18:27:29.589Z,17.20
2017-08-31T18:29:57.859Z,17.20
2017-08-31T18:32:29.413Z,17.10
2017-08-31T18:34:57.692Z,17.20
2017-08-31T18:37:26.183Z,17.20
2017-08-31T18:39:54.521Z,17.20
2017-08-31T18:42:23.073Z,17.20
2017-08-31T18:44:52.409Z,17.10
2017-08-31T18:47:21.605Z,17.10
2017-08-31T18:49:50.423Z,17.10
2017-08-31T18:52:19.387Z,17.10
2017-08-31T18:54:48.593Z,17.20
2017-08-31T18:57:17.766Z,17.20
2017-08-31T18:59:46.653Z,17.10
2017-08-31T19:02:15.446Z,17.10
2017-08-31T19:04:44.730Z,17.10
2017-08-31T19:07:13.640Z,17.10
2017-08-31T19:09:42.589Z,17.10
2017-08-31T19:12:11.753Z,17.00
2017-08-31T19:14:41.076Z,17.00
2017-08-31T19:17:10.293Z,17.00
2017-08-31T19:19:39.666Z,17.00
2017-08-31T19:22:09.319Z,17.00
2017-08-31T19:24:38.623Z,16.90
2017-08-31T19:27:07.852Z,16.90
2017-08-31T19:29:37.244Z,16.90
2017-08-31T19:32:06.517Z,16.90
2017-08-31T19:34:36.005Z,16.90
2017-08-31T19:37:05.415Z,16.90
2017-08-31T19:39:34.739Z,16.80
2017-08-31T19:42:04.050Z,16.80
2017-08-31T19:44:33.420Z,16.80
2017-08-31T19:47:03.011Z,16.80
2017-08-31T19:49:32.456Z,16.80
2017-08-31T19:52:01.741Z,16.70
2017-08-31T19:54:31.210Z,16.70
2017-08-31T19:57:00.481Z,16.70
2017-08-31T19:59:29.727Z,16.70
2017-08-31T20:01:59.000Z,16.70
2017-08-31T20:04:28.221Z,16.70
2017-08-31T20:06:57.518Z,16.70
2017-08-31T20:09:26.710Z,16.70
2017-08-31T20:11:55.966Z,16.70
2017-08-31T20:14:24.758Z,16.70
2017-08-31T20:16:53.691Z,16.70
2017-08-31T20:19:22.613Z,16.70
2017-08-31T20:21:51.722Z,16.70
2017-08-31T20:24:20.362Z,16.70
2017-08-31T20:26:48.815Z,16.70
2017-08-31T20:29:17.004Z,16.70
2017-08-31T20:31:45.392Z,16.70
2017-08-31T20:34:13.848Z,16.70
2017-08-31T20:36:42.074Z,16.70
2017-08-31T20:39:10.235Z,16.70
2017-08-31T20:41:38.419Z,16.60
2017-08-31T20:44:06.613Z,16.60
2017-08-31T20:46:34.775Z,16.60
2017-08-31T20:49:02.939Z,16.60
2017-08-31T20:51:31.105Z,16.50
2017-08-31T20:53:59.307Z,16.50
2017-08-31T20:56:27.488Z,16.50
2017-08-31T20:58:55.643Z,16.40
2017-08-31T21:01:23.815Z,16.50
2017-08-31T21:03:51.969Z,16.40
2017-08-31T21:06:20.099Z,16.40
2017-08-31T21:08:48.245Z,16.40
2017-08-31T21:11:16.392Z,16.40
2017-08-31T21:13:44.567Z,16.40
2017-08-31T21:16:12.697Z,16.40
2017-08-31T21:18:40.836Z,16.30
2017-08-31T21:21:08.998Z,16.40
2017-08-31T21:23:37.140Z,16.40
2017-08-31T21:26:05.411Z,16.30
2017-08-31T21:28:33.550Z,16.30
2017-08-31T21:31:01.702Z,16.30
2017-08-31T21:33:29.879Z,16.30
2017-08-31T21:35:58.044Z,16.40
2017-08-31T21:38:26.198Z,16.40
2017-08-31T21:40:54.336Z,16.40
2017-08-31T21:43:22.493Z,16.40
2017-08-31T21:45:50.629Z,16.40
2017-08-31T21:48:18.764Z,16.40
2017-08-31T21:50:48.006Z,16.40
2017-08-31T21:53:16.208Z,16.40
2017-08-31T21:55:44.342Z,16.40
2017-08-31T21:58:12.500Z,16.40
2017-08-31T22:00:40.649Z,16.40
2017-08-31T22:03:08.797Z,16.40
2017-08-31T22:05:36.959Z,16.40
2017-08-31T22:08:05.107Z,16.30
2017-08-31T22:10:33.265Z,16.30
2017-08-31T22:13:01.387Z,16.30
2017-08-31T22:15:29.561Z,16.30
2017-08-31T22:17:57.701Z,16.30
2017-08-31T22:20:25.834Z,16.30
2017-08-31T22:22:54.003Z,16.20
2017-08-31T22:25:22.140Z,16.30
2017-08-31T22:27:50.307Z,16.20
2017-08-31T22:30:18.455Z,16.20
2017-08-31T22:32:46.618Z,16.20
2017-08-31T22:35:14.748Z,16.20
2017-08-31T22:37:42.899Z,16.20
2017-08-31T22:40:11.057Z,16.20
2017-08-31T22:42:39.186Z,16.20
2017-08-31T22:45:07.305Z,16.20
2017-08-31T22:47:35.474Z,16.20
2017-08-31T22:50:03.606Z,16.20
2017-08-31T22:52:31.759Z,16.20
2017-08-31T22:55:17.775Z,16.10
2017-08-31T22:58:03.614Z,16.10
2017-08-31T23:00:31.743Z,16.00
2017-08-31T23:02:59.872Z,16.00
2017-08-31T23:05:28.037Z,15.90
2017-08-31T23:07:56.175Z,15.80
2017-08-31T23:10:24.355Z,15.80
2017-08-31T23:12:52.854Z,15.70
2017-08-31T23:15:21.010Z,15.70
2017-08-31T23:17:49.142Z,15.70
2017-08-31T23:20:17.279Z,15.60
2017-08-31T23:22:45.423Z,15.60
2017-08-31T23:25:13.566Z,15.60
2017-08-31T23:27:41.731Z,15.60
2017-08-31T23:30:09.858Z,15.50
2017-08-31T23:32:38.000Z,15.50
2017-08-31T23:35:06.154Z,15.50
2017-08-31T23:37:34.281Z,15.50
2017-08-31T23:40:02.417Z,15.50
2017-08-31T23:42:30.566Z,15.50
2017-08-31T23:44:58.719Z,15.50
2017-08-31T23:47:26.877Z,15.50
2017-08-31T23:49:55.028Z,15.50
2017-08-31T23:52:23.183Z,15.50
2017-08-31T23:54:52.163Z,15.60
2017-08-31T23:57:20.309Z,15.50
2017-08-31T23:59:48.480Z,15.50
